sensor_id;sensor_type;location;lat;lon;timestamp;P1;durP1;ratioP1;P2;durP2;ratioP2
75655;SDS011;64252;51.094;13.714;2024-01-11T00:00:28;23.10;;;10.40;;
75655;SDS011;64252;51.094;13.714;2024-01-11T00:02:54;30.10;;;11.98;;
75655;SDS011;64252;51.094;13.714;2024-01-11T00:05:20;27.70;;;11.80;;
75655;SDS011;64252;51.094;13.714;2024-01-11T00:07:47;22.10;;;10.65;;
75655;SDS011;64252;51.094;13.714;2024-01-11T00:10:14;25.15;;;9.68;;
75655;SDS011;64252;51.094;13.714;2024-01-11T00:12:41;23.35;;;9.07;;
75655;SDS011;64252;51.094;13.714;2024-01-11T00:15:06;25.40;;;12.18;;
75655;SDS011;64252;51.094;13.714;2024-01-11T00:17:32;24.77;;;11.73;;
75655;SDS011;64252;51.094;13.714;2024-01-11T00:19:58;28.77;;;11.80;;
75655;SDS011;64252;51.094;13.714;2024-01-11T00:22:23;24.23;;;10.20;;
75655;SDS011;64252;51.094;13.714;2024-01-11T00:24:49;30.50;;;12.15;;
75655;SDS011;64252;51.094;13.714;2024-01-11T00:27:15;27.27;;;10.88;;
75655;SDS011;64252;51.094;13.714;2024-01-11T00:29:40;24.77;;;11.55;;
75655;SDS011;64252;51.094;13.714;2024-01-11T00:32:06;26.58;;;11.98;;
75655;SDS011;64252;51.094;13.714;2024-01-11T00:34:32;29.63;;;13.77;;
75655;SDS011;64252;51.094;13.714;2024-01-11T00:36:57;31.80;;;12.15;;
75655;SDS011;64252;51.094;13.714;2024-01-11T00:39:23;32.97;;;13.02;;
75655;SDS011;64252;51.094;13.714;2024-01-11T00:41:49;32.28;;;12.10;;
75655;SDS011;64252;51.094;13.714;2024-01-11T00:44:16;23.27;;;10.73;;
75655;SDS011;64252;51.094;13.714;2024-01-11T00:46:42;25.40;;;11.60;;
75655;SDS011;64252;51.094;13.714;2024-01-11T00:49:07;30.58;;;12.70;;
75655;SDS011;64252;51.094;13.714;2024-01-11T00:51:33;25.80;;;12.15;;
75655;SDS011;64252;51.094;13.714;2024-01-11T00:53:58;37.08;;;13.57;;
75655;SDS011;64252;51.094;13.714;2024-01-11T00:56:27;27.73;;;12.25;;
75655;SDS011;64252;51.094;13.714;2024-01-11T00:58:53;38.10;;;14.07;;
75655;SDS011;64252;51.094;13.714;2024-01-11T01:01:18;39.00;;;13.30;;
75655;SDS011;64252;51.094;13.714;2024-01-11T01:03:44;32.20;;;13.15;;
75655;SDS011;64252;51.094;13.714;2024-01-11T01:06:10;27.73;;;12.77;;
75655;SDS011;64252;51.094;13.714;2024-01-11T01:08:36;30.83;;;13.32;;
75655;SDS011;64252;51.094;13.714;2024-01-11T01:11:02;40.17;;;13.23;;
75655;SDS011;64252;51.094;13.714;2024-01-11T01:13:28;39.97;;;14.00;;
75655;SDS011;64252;51.094;13.714;2024-01-11T01:15:53;30.77;;;12.60;;
75655;SDS011;64252;51.094;13.714;2024-01-11T01:18:19;32.95;;;12.10;;
75655;SDS011;64252;51.094;13.714;2024-01-11T01:20:45;34.10;;;13.70;;
75655;SDS011;64252;51.094;13.714;2024-01-11T01:23:11;34.25;;;13.60;;
75655;SDS011;64252;51.094;13.714;2024-01-11T01:25:36;31.35;;;13.45;;
75655;SDS011;64252;51.094;13.714;2024-01-11T01:28:02;28.98;;;13.02;;
75655;SDS011;64252;51.094;13.714;2024-01-11T01:30:28;31.60;;;13.65;;
75655;SDS011;64252;51.094;13.714;2024-01-11T01:32:54;36.75;;;13.77;;
75655;SDS011;64252;51.094;13.714;2024-01-11T01:35:19;36.25;;;14.55;;
75655;SDS011;64252;51.094;13.714;2024-01-11T01:37:45;35.28;;;14.30;;
75655;SDS011;64252;51.094;13.714;2024-01-11T01:40:11;34.08;;;14.70;;
75655;SDS011;64252;51.094;13.714;2024-01-11T01:42:41;33.75;;;14.25;;
75655;SDS011;64252;51.094;13.714;2024-01-11T01:45:10;26.08;;;13.82;;
75655;SDS011;64252;51.094;13.714;2024-01-11T01:47:37;35.22;;;14.77;;
75655;SDS011;64252;51.094;13.714;2024-01-11T01:50:05;34.08;;;16.30;;
75655;SDS011;64252;51.094;13.714;2024-01-11T01:52:32;34.80;;;18.50;;
75655;SDS011;64252;51.094;13.714;2024-01-11T01:54:59;37.70;;;16.48;;
75655;SDS011;64252;51.094;13.714;2024-01-11T01:57:26;34.13;;;14.73;;
75655;SDS011;64252;51.094;13.714;2024-01-11T01:59:52;34.80;;;16.42;;
75655;SDS011;64252;51.094;13.714;2024-01-11T02:02:19;33.53;;;15.38;;
75655;SDS011;64252;51.094;13.714;2024-01-11T02:04:46;42.45;;;16.88;;
75655;SDS011;64252;51.094;13.714;2024-01-11T02:07:12;38.47;;;15.30;;
75655;SDS011;64252;51.094;13.714;2024-01-11T02:09:39;31.63;;;15.30;;
75655;SDS011;64252;51.094;13.714;2024-01-11T02:12:06;39.25;;;15.15;;
75655;SDS011;64252;51.094;13.714;2024-01-11T02:14:39;31.60;;;16.90;;
75655;SDS011;64252;51.094;13.714;2024-01-11T02:17:05;37.13;;;16.70;;
75655;SDS011;64252;51.094;13.714;2024-01-11T02:19:31;40.67;;;17.05;;
75655;SDS011;64252;51.094;13.714;2024-01-11T02:22:00;40.58;;;15.88;;
75655;SDS011;64252;51.094;13.714;2024-01-11T02:24:33;38.78;;;16.00;;
75655;SDS011;64252;51.094;13.714;2024-01-11T02:27:00;38.22;;;16.83;;
75655;SDS011;64252;51.094;13.714;2024-01-11T02:29:27;33.60;;;14.68;;
75655;SDS011;64252;51.094;13.714;2024-01-11T02:31:54;39.92;;;15.32;;
75655;SDS011;64252;51.094;13.714;2024-01-11T02:34:21;37.50;;;15.30;;
75655;SDS011;64252;51.094;13.714;2024-01-11T02:36:48;39.75;;;14.38;;
75655;SDS011;64252;51.094;13.714;2024-01-11T02:39:16;37.78;;;16.30;;
75655;SDS011;64252;51.094;13.714;2024-01-11T02:41:44;48.40;;;15.50;;
75655;SDS011;64252;51.094;13.714;2024-01-11T02:44:10;37.22;;;15.85;;
75655;SDS011;64252;51.094;13.714;2024-01-11T02:46:36;36.72;;;15.50;;
75655;SDS011;64252;51.094;13.714;2024-01-11T02:49:01;32.83;;;14.48;;
75655;SDS011;64252;51.094;13.714;2024-01-11T02:51:27;33.00;;;13.77;;
75655;SDS011;64252;51.094;13.714;2024-01-11T02:53:53;29.95;;;13.88;;
75655;SDS011;64252;51.094;13.714;2024-01-11T02:56:19;26.35;;;11.63;;
75655;SDS011;64252;51.094;13.714;2024-01-11T02:58:44;33.80;;;15.05;;
75655;SDS011;64252;51.094;13.714;2024-01-11T03:01:10;32.65;;;13.90;;
75655;SDS011;64252;51.094;13.714;2024-01-11T03:03:36;30.27;;;12.20;;
75655;SDS011;64252;51.094;13.714;2024-01-11T03:06:04;34.72;;;14.45;;
75655;SDS011;64252;51.094;13.714;2024-01-11T03:08:30;34.20;;;15.05;;
75655;SDS011;64252;51.094;13.714;2024-01-11T03:10:55;31.40;;;13.63;;
75655;SDS011;64252;51.094;13.714;2024-01-11T03:13:21;34.60;;;13.40;;
75655;SDS011;64252;51.094;13.714;2024-01-11T03:15:49;29.38;;;13.38;;
75655;SDS011;64252;51.094;13.714;2024-01-11T03:18:14;29.15;;;12.48;;
75655;SDS011;64252;51.094;13.714;2024-01-11T03:20:40;35.13;;;13.75;;
75655;SDS011;64252;51.094;13.714;2024-01-11T03:23:06;30.65;;;14.10;;
75655;SDS011;64252;51.094;13.714;2024-01-11T03:25:32;27.27;;;12.07;;
75655;SDS011;64252;51.094;13.714;2024-01-11T03:27:57;32.72;;;12.65;;
75655;SDS011;64252;51.094;13.714;2024-01-11T03:30:24;43.13;;;13.93;;
75655;SDS011;64252;51.094;13.714;2024-01-11T03:32:50;26.65;;;13.07;;
75655;SDS011;64252;51.094;13.714;2024-01-11T03:35:16;30.70;;;12.82;;
75655;SDS011;64252;51.094;13.714;2024-01-11T03:37:43;37.38;;;13.98;;
75655;SDS011;64252;51.094;13.714;2024-01-11T03:40:09;29.80;;;12.77;;
75655;SDS011;64252;51.094;13.714;2024-01-11T03:42:35;30.60;;;12.85;;
75655;SDS011;64252;51.094;13.714;2024-01-11T03:45:02;29.70;;;12.13;;
75655;SDS011;64252;51.094;13.714;2024-01-11T03:47:28;30.60;;;12.55;;
75655;SDS011;64252;51.094;13.714;2024-01-11T03:49:54;37.67;;;13.52;;
75655;SDS011;64252;51.094;13.714;2024-01-11T03:52:19;32.67;;;12.85;;
75655;SDS011;64252;51.094;13.714;2024-01-11T03:54:45;28.30;;;11.65;;
75655;SDS011;64252;51.094;13.714;2024-01-11T03:57:11;27.92;;;12.23;;
75655;SDS011;64252;51.094;13.714;2024-01-11T03:59:37;26.80;;;11.15;;
75655;SDS011;64252;51.094;13.714;2024-01-11T04:02:02;33.35;;;12.30;;
75655;SDS011;64252;51.094;13.714;2024-01-11T04:04:28;27.45;;;11.48;;
75655;SDS011;64252;51.094;13.714;2024-01-11T04:06:54;27.50;;;13.98;;
75655;SDS011;64252;51.094;13.714;2024-01-11T04:09:20;29.52;;;12.10;;
75655;SDS011;64252;51.094;13.714;2024-01-11T04:11:45;25.35;;;11.35;;
75655;SDS011;64252;51.094;13.714;2024-01-11T04:14:11;29.00;;;11.02;;
75655;SDS011;64252;51.094;13.714;2024-01-11T04:16:40;30.50;;;13.00;;
75655;SDS011;64252;51.094;13.714;2024-01-11T04:19:07;32.58;;;13.98;;
75655;SDS011;64252;51.094;13.714;2024-01-11T04:21:33;26.63;;;10.98;;
75655;SDS011;64252;51.094;13.714;2024-01-11T04:23:58;31.08;;;13.52;;
75655;SDS011;64252;51.094;13.714;2024-01-11T04:26:24;32.65;;;13.70;;
75655;SDS011;64252;51.094;13.714;2024-01-11T04:28:51;33.90;;;13.50;;
75655;SDS011;64252;51.094;13.714;2024-01-11T04:31:17;33.60;;;13.23;;
75655;SDS011;64252;51.094;13.714;2024-01-11T04:33:43;28.50;;;12.85;;
75655;SDS011;64252;51.094;13.714;2024-01-11T04:36:10;33.70;;;14.07;;
75655;SDS011;64252;51.094;13.714;2024-01-11T04:38:36;28.48;;;12.80;;
75655;SDS011;64252;51.094;13.714;2024-01-11T04:41:14;24.98;;;13.52;;
75655;SDS011;64252;51.094;13.714;2024-01-11T04:43:41;29.35;;;13.50;;
75655;SDS011;64252;51.094;13.714;2024-01-11T04:46:21;41.33;;;13.85;;
75655;SDS011;64252;51.094;13.714;2024-01-11T04:48:48;33.50;;;12.38;;
75655;SDS011;64252;51.094;13.714;2024-01-11T04:51:15;33.60;;;14.27;;
75655;SDS011;64252;51.094;13.714;2024-01-11T04:53:42;31.55;;;12.75;;
75655;SDS011;64252;51.094;13.714;2024-01-11T04:56:09;34.72;;;12.40;;
75655;SDS011;64252;51.094;13.714;2024-01-11T04:58:36;28.25;;;13.73;;
75655;SDS011;64252;51.094;13.714;2024-01-11T05:01:05;28.20;;;13.50;;
75655;SDS011;64252;51.094;13.714;2024-01-11T05:03:31;39.13;;;13.80;;
75655;SDS011;64252;51.094;13.714;2024-01-11T05:05:58;37.13;;;13.57;;
75655;SDS011;64252;51.094;13.714;2024-01-11T05:08:25;39.50;;;14.82;;
75655;SDS011;64252;51.094;13.714;2024-01-11T05:10:51;28.40;;;12.68;;
75655;SDS011;64252;51.094;13.714;2024-01-11T05:13:17;24.73;;;12.32;;
75655;SDS011;64252;51.094;13.714;2024-01-11T05:15:43;34.53;;;15.40;;
75655;SDS011;64252;51.094;13.714;2024-01-11T05:18:09;41.85;;;14.32;;
75655;SDS011;64252;51.094;13.714;2024-01-11T05:20:35;35.80;;;14.50;;
75655;SDS011;64252;51.094;13.714;2024-01-11T05:23:00;30.08;;;13.10;;
75655;SDS011;64252;51.094;13.714;2024-01-11T05:25:26;37.20;;;15.07;;
75655;SDS011;64252;51.094;13.714;2024-01-11T05:27:52;46.97;;;17.40;;
75655;SDS011;64252;51.094;13.714;2024-01-11T05:30:18;31.38;;;13.90;;
75655;SDS011;64252;51.094;13.714;2024-01-11T05:32:43;36.72;;;16.80;;
75655;SDS011;64252;51.094;13.714;2024-01-11T05:35:09;39.47;;;15.35;;
75655;SDS011;64252;51.094;13.714;2024-01-11T05:37:35;35.53;;;15.40;;
75655;SDS011;64252;51.094;13.714;2024-01-11T05:40:01;26.02;;;12.68;;
75655;SDS011;64252;51.094;13.714;2024-01-11T05:42:28;39.40;;;15.60;;
75655;SDS011;64252;51.094;13.714;2024-01-11T05:44:53;32.60;;;15.05;;
75655;SDS011;64252;51.094;13.714;2024-01-11T05:47:19;35.03;;;14.82;;
75655;SDS011;64252;51.094;13.714;2024-01-11T05:49:45;35.08;;;17.10;;
75655;SDS011;64252;51.094;13.714;2024-01-11T05:52:11;40.05;;;16.17;;
75655;SDS011;64252;51.094;13.714;2024-01-11T05:54:36;37.03;;;14.90;;
75655;SDS011;64252;51.094;13.714;2024-01-11T05:57:02;43.33;;;17.35;;
75655;SDS011;64252;51.094;13.714;2024-01-11T05:59:28;49.13;;;17.80;;
75655;SDS011;64252;51.094;13.714;2024-01-11T06:01:54;38.33;;;16.58;;
75655;SDS011;64252;51.094;13.714;2024-01-11T06:04:19;45.65;;;17.95;;
75655;SDS011;64252;51.094;13.714;2024-01-11T06:06:45;42.45;;;17.10;;
75655;SDS011;64252;51.094;13.714;2024-01-11T06:09:11;53.22;;;15.25;;
75655;SDS011;64252;51.094;13.714;2024-01-11T06:11:36;49.97;;;18.35;;
75655;SDS011;64252;51.094;13.714;2024-01-11T06:14:02;30.38;;;14.32;;
75655;SDS011;64252;51.094;13.714;2024-01-11T06:16:28;38.15;;;15.52;;
75655;SDS011;64252;51.094;13.714;2024-01-11T06:18:54;46.95;;;18.60;;
75655;SDS011;64252;51.094;13.714;2024-01-11T06:21:20;35.47;;;15.82;;
75655;SDS011;64252;51.094;13.714;2024-01-11T06:23:45;40.20;;;14.90;;
75655;SDS011;64252;51.094;13.714;2024-01-11T06:26:11;34.53;;;15.80;;
75655;SDS011;64252;51.094;13.714;2024-01-11T06:28:37;45.38;;;16.40;;
75655;SDS011;64252;51.094;13.714;2024-01-11T06:31:03;36.72;;;15.75;;
75655;SDS011;64252;51.094;13.714;2024-01-11T06:33:29;61.35;;;21.90;;
75655;SDS011;64252;51.094;13.714;2024-01-11T06:35:54;58.30;;;20.75;;
75655;SDS011;64252;51.094;13.714;2024-01-11T06:38:21;48.47;;;18.30;;
75655;SDS011;64252;51.094;13.714;2024-01-11T06:40:47;47.10;;;17.55;;
75655;SDS011;64252;51.094;13.714;2024-01-11T06:43:14;60.70;;;19.40;;
75655;SDS011;64252;51.094;13.714;2024-01-11T06:45:40;107.00;;;50.58;;
75655;SDS011;64252;51.094;13.714;2024-01-11T06:48:08;37.88;;;18.00;;
75655;SDS011;64252;51.094;13.714;2024-01-11T06:50:33;49.80;;;19.05;;
75655;SDS011;64252;51.094;13.714;2024-01-11T06:52:59;41.67;;;15.70;;
75655;SDS011;64252;51.094;13.714;2024-01-11T06:55:25;36.05;;;13.82;;
75655;SDS011;64252;51.094;13.714;2024-01-11T06:57:51;31.95;;;15.23;;
75655;SDS011;64252;51.094;13.714;2024-01-11T07:00:17;40.53;;;16.90;;
75655;SDS011;64252;51.094;13.714;2024-01-11T07:02:43;37.15;;;16.02;;
75655;SDS011;64252;51.094;13.714;2024-01-11T07:05:08;37.33;;;15.40;;
75655;SDS011;64252;51.094;13.714;2024-01-11T07:07:35;29.02;;;12.90;;
75655;SDS011;64252;51.094;13.714;2024-01-11T07:10:01;34.42;;;14.05;;
75655;SDS011;64252;51.094;13.714;2024-01-11T07:12:27;25.30;;;11.50;;
75655;SDS011;64252;51.094;13.714;2024-01-11T07:14:53;34.83;;;15.70;;
75655;SDS011;64252;51.094;13.714;2024-01-11T07:17:18;32.75;;;15.00;;
75655;SDS011;64252;51.094;13.714;2024-01-11T07:19:44;34.60;;;13.23;;
75655;SDS011;64252;51.094;13.714;2024-01-11T07:22:11;35.60;;;14.40;;
75655;SDS011;64252;51.094;13.714;2024-01-11T07:24:36;36.60;;;15.10;;
75655;SDS011;64252;51.094;13.714;2024-01-11T07:27:06;31.77;;;13.15;;
75655;SDS011;64252;51.094;13.714;2024-01-11T07:29:34;30.70;;;12.45;;
75655;SDS011;64252;51.094;13.714;2024-01-11T07:32:00;32.53;;;12.10;;
75655;SDS011;64252;51.094;13.714;2024-01-11T07:34:26;27.45;;;13.27;;
75655;SDS011;64252;51.094;13.714;2024-01-11T07:36:52;22.23;;;10.20;;
75655;SDS011;64252;51.094;13.714;2024-01-11T07:39:18;29.25;;;12.98;;
75655;SDS011;64252;51.094;13.714;2024-01-11T07:41:44;24.60;;;11.48;;
75655;SDS011;64252;51.094;13.714;2024-01-11T07:44:10;30.50;;;11.30;;
75655;SDS011;64252;51.094;13.714;2024-01-11T07:46:36;27.88;;;12.13;;
75655;SDS011;64252;51.094;13.714;2024-01-11T07:49:02;26.88;;;12.65;;
75655;SDS011;64252;51.094;13.714;2024-01-11T07:51:28;25.83;;;10.95;;
75655;SDS011;64252;51.094;13.714;2024-01-11T07:53:54;29.73;;;12.27;;
75655;SDS011;64252;51.094;13.714;2024-01-11T07:56:19;25.25;;;12.02;;
75655;SDS011;64252;51.094;13.714;2024-01-11T07:58:45;23.33;;;11.43;;
75655;SDS011;64252;51.094;13.714;2024-01-11T08:01:11;27.88;;;11.88;;
75655;SDS011;64252;51.094;13.714;2024-01-11T08:03:37;28.05;;;11.05;;
75655;SDS011;64252;51.094;13.714;2024-01-11T08:06:04;25.33;;;11.35;;
75655;SDS011;64252;51.094;13.714;2024-01-11T08:08:34;24.17;;;11.85;;
75655;SDS011;64252;51.094;13.714;2024-01-11T08:10:59;29.65;;;13.30;;
75655;SDS011;64252;51.094;13.714;2024-01-11T08:13:25;29.65;;;12.35;;
75655;SDS011;64252;51.094;13.714;2024-01-11T08:15:51;24.90;;;10.95;;
75655;SDS011;64252;51.094;13.714;2024-01-11T08:18:18;27.60;;;11.07;;
75655;SDS011;64252;51.094;13.714;2024-01-11T08:20:44;24.83;;;10.38;;
75655;SDS011;64252;51.094;13.714;2024-01-11T08:23:10;25.52;;;11.07;;
75655;SDS011;64252;51.094;13.714;2024-01-11T08:25:36;26.67;;;12.23;;
75655;SDS011;64252;51.094;13.714;2024-01-11T08:28:02;27.25;;;11.93;;
75655;SDS011;64252;51.094;13.714;2024-01-11T08:30:28;32.35;;;11.75;;
75655;SDS011;64252;51.094;13.714;2024-01-11T08:32:55;29.17;;;11.43;;
75655;SDS011;64252;51.094;13.714;2024-01-11T08:35:21;25.58;;;11.98;;
75655;SDS011;64252;51.094;13.714;2024-01-11T08:37:47;27.95;;;11.27;;
75655;SDS011;64252;51.094;13.714;2024-01-11T08:40:13;28.08;;;13.38;;
75655;SDS011;64252;51.094;13.714;2024-01-11T08:42:38;27.20;;;12.52;;
75655;SDS011;64252;51.094;13.714;2024-01-11T08:45:06;23.80;;;10.93;;
75655;SDS011;64252;51.094;13.714;2024-01-11T08:47:33;33.22;;;15.02;;
75655;SDS011;64252;51.094;13.714;2024-01-11T08:50:03;28.98;;;11.70;;
75655;SDS011;64252;51.094;13.714;2024-01-11T08:52:31;24.90;;;11.98;;
75655;SDS011;64252;51.094;13.714;2024-01-11T08:54:58;36.63;;;14.65;;
75655;SDS011;64252;51.094;13.714;2024-01-11T08:57:24;43.42;;;14.05;;
75655;SDS011;64252;51.094;13.714;2024-01-11T08:59:52;34.33;;;13.88;;
75655;SDS011;64252;51.094;13.714;2024-01-11T09:02:18;33.97;;;14.95;;
75655;SDS011;64252;51.094;13.714;2024-01-11T09:04:44;32.72;;;15.10;;
75655;SDS011;64252;51.094;13.714;2024-01-11T09:07:09;41.22;;;16.10;;
75655;SDS011;64252;51.094;13.714;2024-01-11T09:09:35;46.40;;;19.30;;
75655;SDS011;64252;51.094;13.714;2024-01-11T09:12:01;38.25;;;15.63;;
75655;SDS011;64252;51.094;13.714;2024-01-11T09:14:28;40.85;;;18.25;;
75655;SDS011;64252;51.094;13.714;2024-01-11T09:16:53;45.97;;;18.02;;
75655;SDS011;64252;51.094;13.714;2024-01-11T09:19:20;50.70;;;20.33;;
75655;SDS011;64252;51.094;13.714;2024-01-11T09:21:45;53.42;;;20.25;;
75655;SDS011;64252;51.094;13.714;2024-01-11T09:24:11;57.35;;;21.52;;
75655;SDS011;64252;51.094;13.714;2024-01-11T09:26:37;48.90;;;21.05;;
75655;SDS011;64252;51.094;13.714;2024-01-11T09:29:02;52.83;;;20.48;;
75655;SDS011;64252;51.094;13.714;2024-01-11T09:31:29;51.33;;;22.48;;
75655;SDS011;64252;51.094;13.714;2024-01-11T09:33:54;61.22;;;23.05;;
75655;SDS011;64252;51.094;13.714;2024-01-11T09:36:22;71.45;;;23.38;;
75655;SDS011;64252;51.094;13.714;2024-01-11T09:38:48;58.28;;;23.00;;
75655;SDS011;64252;51.094;13.714;2024-01-11T09:41:14;53.30;;;22.88;;
75655;SDS011;64252;51.094;13.714;2024-01-11T09:43:40;47.80;;;20.20;;
75655;SDS011;64252;51.094;13.714;2024-01-11T09:46:07;52.58;;;20.83;;
75655;SDS011;64252;51.094;13.714;2024-01-11T09:48:36;55.92;;;22.15;;
75655;SDS011;64252;51.094;13.714;2024-01-11T09:51:06;48.95;;;19.17;;
75655;SDS011;64252;51.094;13.714;2024-01-11T09:53:35;58.00;;;22.95;;
75655;SDS011;64252;51.094;13.714;2024-01-11T09:56:05;45.60;;;20.27;;
75655;SDS011;64252;51.094;13.714;2024-01-11T09:58:33;55.08;;;21.25;;
75655;SDS011;64252;51.094;13.714;2024-01-11T10:01:02;52.28;;;22.42;;
75655;SDS011;64252;51.094;13.714;2024-01-11T10:03:32;100.50;;;31.42;;
75655;SDS011;64252;51.094;13.714;2024-01-11T10:05:58;58.92;;;21.92;;
75655;SDS011;64252;51.094;13.714;2024-01-11T10:08:25;69.90;;;25.27;;
75655;SDS011;64252;51.094;13.714;2024-01-11T10:10:52;77.38;;;26.80;;
75655;SDS011;64252;51.094;13.714;2024-01-11T10:13:18;53.88;;;20.48;;
75655;SDS011;64252;51.094;13.714;2024-01-11T10:15:44;51.80;;;19.70;;
75655;SDS011;64252;51.094;13.714;2024-01-11T10:18:09;48.67;;;19.40;;
75655;SDS011;64252;51.094;13.714;2024-01-11T10:20:37;56.65;;;23.33;;
75655;SDS011;64252;51.094;13.714;2024-01-11T10:23:03;53.22;;;20.75;;
75655;SDS011;64252;51.094;13.714;2024-01-11T10:25:29;42.47;;;19.48;;
75655;SDS011;64252;51.094;13.714;2024-01-11T10:27:55;47.85;;;19.05;;
75655;SDS011;64252;51.094;13.714;2024-01-11T10:30:21;61.15;;;22.98;;
75655;SDS011;64252;51.094;13.714;2024-01-11T10:32:48;54.78;;;21.83;;
75655;SDS011;64252;51.094;13.714;2024-01-11T10:35:14;60.33;;;23.02;;
75655;SDS011;64252;51.094;13.714;2024-01-11T10:37:43;46.20;;;19.10;;
75655;SDS011;64252;51.094;13.714;2024-01-11T10:40:09;54.72;;;22.88;;
75655;SDS011;64252;51.094;13.714;2024-01-11T10:42:39;61.33;;;23.75;;
75655;SDS011;64252;51.094;13.714;2024-01-11T10:47:39;49.05;;;19.85;;
75655;SDS011;64252;51.094;13.714;2024-01-11T10:50:22;70.47;;;26.15;;
75655;SDS011;64252;51.094;13.714;2024-01-11T10:55:37;46.60;;;17.75;;
75655;SDS011;64252;51.094;13.714;2024-01-11T10:58:05;50.58;;;21.25;;
75655;SDS011;64252;51.094;13.714;2024-01-11T11:00:35;50.67;;;20.52;;
75655;SDS011;64252;51.094;13.714;2024-01-11T11:03:04;55.60;;;22.15;;
75655;SDS011;64252;51.094;13.714;2024-01-11T11:05:34;49.55;;;20.88;;
75655;SDS011;64252;51.094;13.714;2024-01-11T11:08:03;55.10;;;21.02;;
75655;SDS011;64252;51.094;13.714;2024-01-11T11:10:31;47.35;;;19.65;;
75655;SDS011;64252;51.094;13.714;2024-01-11T11:12:59;46.03;;;19.67;;
75655;SDS011;64252;51.094;13.714;2024-01-11T11:15:28;54.42;;;20.63;;
75655;SDS011;64252;51.094;13.714;2024-01-11T11:17:55;54.85;;;21.35;;
75655;SDS011;64252;51.094;13.714;2024-01-11T11:20:21;53.13;;;19.98;;
75655;SDS011;64252;51.094;13.714;2024-01-11T11:23:03;53.83;;;21.48;;
75655;SDS011;64252;51.094;13.714;2024-01-11T11:25:30;51.75;;;22.13;;
75655;SDS011;64252;51.094;13.714;2024-01-11T11:27:56;44.05;;;18.13;;
75655;SDS011;64252;51.094;13.714;2024-01-11T11:30:22;50.05;;;19.90;;
75655;SDS011;64252;51.094;13.714;2024-01-11T11:32:48;48.60;;;19.85;;
75655;SDS011;64252;51.094;13.714;2024-01-11T11:35:14;45.30;;;19.00;;
75655;SDS011;64252;51.094;13.714;2024-01-11T11:37:39;45.72;;;20.95;;
75655;SDS011;64252;51.094;13.714;2024-01-11T11:40:06;52.65;;;21.45;;
75655;SDS011;64252;51.094;13.714;2024-01-11T11:42:36;57.08;;;21.30;;
75655;SDS011;64252;51.094;13.714;2024-01-11T11:45:02;52.28;;;21.02;;
75655;SDS011;64252;51.094;13.714;2024-01-11T11:47:33;51.45;;;20.85;;
75655;SDS011;64252;51.094;13.714;2024-01-11T11:50:07;44.22;;;17.92;;
75655;SDS011;64252;51.094;13.714;2024-01-11T11:52:35;49.28;;;20.48;;
75655;SDS011;64252;51.094;13.714;2024-01-11T11:55:05;41.67;;;19.25;;
75655;SDS011;64252;51.094;13.714;2024-01-11T11:57:33;46.53;;;19.58;;
75655;SDS011;64252;51.094;13.714;2024-01-11T11:59:59;45.65;;;16.42;;
75655;SDS011;64252;51.094;13.714;2024-01-11T12:05:02;41.40;;;18.20;;
75655;SDS011;64252;51.094;13.714;2024-01-11T12:07:30;38.25;;;16.10;;
75655;SDS011;64252;51.094;13.714;2024-01-11T12:09:56;43.58;;;18.42;;
75655;SDS011;64252;51.094;13.714;2024-01-11T12:12:22;44.58;;;17.90;;
75655;SDS011;64252;51.094;13.714;2024-01-11T12:14:48;45.53;;;19.10;;
75655;SDS011;64252;51.094;13.714;2024-01-11T12:17:15;42.13;;;17.90;;
75655;SDS011;64252;51.094;13.714;2024-01-11T12:19:41;39.08;;;17.75;;
75655;SDS011;64252;51.094;13.714;2024-01-11T12:22:07;48.70;;;19.20;;
75655;SDS011;64252;51.094;13.714;2024-01-11T12:24:33;54.88;;;20.95;;
75655;SDS011;64252;51.094;13.714;2024-01-11T12:27:02;51.08;;;19.25;;
75655;SDS011;64252;51.094;13.714;2024-01-11T12:29:28;55.38;;;22.33;;
75655;SDS011;64252;51.094;13.714;2024-01-11T12:31:58;47.40;;;20.25;;
75655;SDS011;64252;51.094;13.714;2024-01-11T12:34:24;49.67;;;18.80;;
75655;SDS011;64252;51.094;13.714;2024-01-11T12:36:51;37.58;;;17.70;;
75655;SDS011;64252;51.094;13.714;2024-01-11T12:39:20;45.22;;;20.90;;
75655;SDS011;64252;51.094;13.714;2024-01-11T12:41:50;44.35;;;20.20;;
75655;SDS011;64252;51.094;13.714;2024-01-11T12:44:17;44.85;;;18.67;;
75655;SDS011;64252;51.094;13.714;2024-01-11T12:46:49;47.33;;;20.08;;
75655;SDS011;64252;51.094;13.714;2024-01-11T12:49:15;43.05;;;19.25;;
75655;SDS011;64252;51.094;13.714;2024-01-11T12:51:41;42.63;;;18.08;;
75655;SDS011;64252;51.094;13.714;2024-01-11T12:54:11;50.58;;;19.13;;
75655;SDS011;64252;51.094;13.714;2024-01-11T12:56:44;49.58;;;20.27;;
75655;SDS011;64252;51.094;13.714;2024-01-11T12:59:10;48.88;;;17.77;;
75655;SDS011;64252;51.094;13.714;2024-01-11T13:01:37;49.17;;;21.33;;
75655;SDS011;64252;51.094;13.714;2024-01-11T13:04:04;45.22;;;18.90;;
75655;SDS011;64252;51.094;13.714;2024-01-11T13:06:31;42.85;;;18.33;;
75655;SDS011;64252;51.094;13.714;2024-01-11T13:08:57;38.67;;;16.33;;
75655;SDS011;64252;51.094;13.714;2024-01-11T13:11:23;44.80;;;17.75;;
75655;SDS011;64252;51.094;13.714;2024-01-11T13:13:53;39.33;;;17.92;;
75655;SDS011;64252;51.094;13.714;2024-01-11T13:16:19;38.90;;;16.38;;
75655;SDS011;64252;51.094;13.714;2024-01-11T13:18:45;48.20;;;18.05;;
75655;SDS011;64252;51.094;13.714;2024-01-11T13:21:13;41.22;;;17.23;;
75655;SDS011;64252;51.094;13.714;2024-01-11T13:23:39;40.97;;;17.90;;
75655;SDS011;64252;51.094;13.714;2024-01-11T13:26:08;38.33;;;15.98;;
75655;SDS011;64252;51.094;13.714;2024-01-11T13:28:36;45.70;;;18.55;;
75655;SDS011;64252;51.094;13.714;2024-01-11T13:31:02;42.08;;;18.98;;
75655;SDS011;64252;51.094;13.714;2024-01-11T13:33:31;46.92;;;18.05;;
75655;SDS011;64252;51.094;13.714;2024-01-11T13:36:00;52.35;;;19.42;;
75655;SDS011;64252;51.094;13.714;2024-01-11T13:38:26;43.80;;;16.80;;
75655;SDS011;64252;51.094;13.714;2024-01-11T13:40:51;41.08;;;17.40;;
75655;SDS011;64252;51.094;13.714;2024-01-11T13:43:23;44.53;;;17.48;;
75655;SDS011;64252;51.094;13.714;2024-01-11T13:45:49;40.33;;;17.17;;
75655;SDS011;64252;51.094;13.714;2024-01-11T13:48:14;39.97;;;17.05;;
75655;SDS011;64252;51.094;13.714;2024-01-11T13:50:40;37.35;;;16.70;;
75655;SDS011;64252;51.094;13.714;2024-01-11T13:53:09;46.80;;;17.98;;
75655;SDS011;64252;51.094;13.714;2024-01-11T13:55:35;37.28;;;17.08;;
75655;SDS011;64252;51.094;13.714;2024-01-11T13:58:03;43.25;;;16.45;;
75655;SDS011;64252;51.094;13.714;2024-01-11T14:00:29;46.08;;;17.58;;
75655;SDS011;64252;51.094;13.714;2024-01-11T14:02:55;45.17;;;16.83;;
75655;SDS011;64252;51.094;13.714;2024-01-11T14:05:20;44.58;;;18.35;;
75655;SDS011;64252;51.094;13.714;2024-01-11T14:07:51;46.50;;;18.55;;
75655;SDS011;64252;51.094;13.714;2024-01-11T14:10:30;42.75;;;19.00;;
75655;SDS011;64252;51.094;13.714;2024-01-11T14:12:55;50.10;;;19.77;;